Terminal Aerodrome Forecast
Issued by NWS

Home | Current Version | Previous Version | Graphics & Text | Print | Product List | Glossary On
Versions: 1 2 3 4 5 6 7 8 9 10 11 12 13 14 15 16 17 18
000
FTUS43 KGRB 271518 AAA
TAFMTW
TAF AMD
KMTW 271518Z 2715/2812 29012KT P6SM SCT009 OVC020
      TEMPO 2716/2718 -SHRA SCT009 BKN013
     FM271800 28011G18KT P6SM SCT020 BKN035
     FM272100 18010KT P6SM BKN035
     FM280100 17007KT P6SM SCT035 SCT080
     FM280500 21004KT P6SM SKC=

USA.gov is the U.S. government's official web portal to all federal, state and local government web resources and services.